Time;durP1;ratioP1;P1;durP2;ratioP2;P2;SDS_P1;SDS_P2;PMS_P1;PMS_P2;Temp;Humidity;BMP_temperature;BMP_pressure;BME280_temperature;BME280_humidity;BME280_pressure;Samples;Min_cycle;Max_cycle;Signal;HPM_P1;HPM_P2
2021/10/30 00:01:05;;;;;;;2.67;2.47;;;;;;;;;;5876379;24;32364;-65
2021/10/30 00:03:32;;;;;;;2.42;2.22;;;;;;;;;;5876784;24;32378;-65
2021/10/30 00:06:00;;;;;;;1.52;1.42;;;;;;;;;;5876521;24;32382;-65
2021/10/30 00:08:29;;;;;;;2.25;2.05;;;;;;;;;;5876631;24;34805;-66
2021/10/30 00:10:56;;;;;;;2.03;1.90;;;;;;;;;;5876392;24;32364;-66
2021/10/30 00:13:22;;;;;;;1.30;1.20;;;;;;;;;;5876744;24;32196;-65
2021/10/30 00:15:49;;;;;;;1.73;1.25;;;;;;;;;;5876743;24;32498;-65
2021/10/30 00:18:16;;;;;;;2.33;2.13;;;;;;;;;;5876770;24;32382;-65
2021/10/30 00:20:42;;;;;;;1.55;1.35;;;;;;;;;;5876595;24;32628;-66
2021/10/30 00:23:10;;;;;;;2.03;1.92;;;;;;;;;;5876420;24;32595;-66
2021/10/30 00:25:37;;;;;;;2.03;1.85;;;;;;;;;;5876502;24;32418;-64
2021/10/30 00:28:04;;;;;;;1.65;1.02;;;;;;;;;;5876649;24;32347;-65
2021/10/30 00:30:30;;;;;;;2.22;2.03;;;;;;;;;;5876487;24;35821;-66
2021/10/30 00:32:57;;;;;;;1.60;1.50;;;;;;;;;;5876301;24;32852;-65
2021/10/30 00:35:24;;;;;;;1.67;1.42;;;;;;;;;;5876564;24;32468;-65
2021/10/30 00:37:50;;;;;;;2.35;1.50;;;;;;;;;;5873108;24;32272;-66
2021/10/30 00:40:18;;;;;;;1.45;1.35;;;;;;;;;;5876516;24;32427;-66
2021/10/30 00:42:45;;;;;;;2.03;1.92;;;;;;;;;;5872608;24;33303;-67
2021/10/30 00:45:11;;;;;;;2.20;1.95;;;;;;;;;;5876187;24;32357;-66
2021/10/30 00:47:38;;;;;;;2.08;1.88;;;;;;;;;;5876085;24;32415;-66
2021/10/30 00:50:07;;;;;;;1.45;1.35;;;;;;;;;;5876617;24;32355;-67
2021/10/30 00:52:35;;;;;;;2.17;1.98;;;;;;;;;;5876264;24;34679;-66
2021/10/30 00:55:03;;;;;;;1.45;1.35;;;;;;;;;;5876373;24;32425;-66
2021/10/30 00:57:34;;;;;;;1.85;1.75;;;;;;;;;;5851910;24;32388;-66
2021/10/30 01:00:01;;;;;;;1.48;1.23;;;;;;;;;;5876915;24;32406;-65
2021/10/30 01:02:28;;;;;;;1.73;1.17;;;;;;;;;;5876037;24;35097;-66
2021/10/30 01:04:54;;;;;;;3.30;2.80;;;;;;;;;;5876251;24;32350;-66
2021/10/30 01:07:21;;;;;;;2.13;1.92;;;;;;;;;;5876393;24;32431;-66
2021/10/30 01:09:50;;;;;;;1.48;1.27;;;;;;;;;;5876279;24;32398;-67
2021/10/30 01:12:18;;;;;;;2.97;2.78;;;;;;;;;;5876061;24;32344;-67
2021/10/30 01:14:47;;;;;;;2.58;1.15;;;;;;;;;;5875953;24;35429;-67
2021/10/30 01:17:14;;;;;;;1.42;1.33;;;;;;;;;;5876003;24;32357;-68
2021/10/30 01:19:41;;;;;;;2.63;2.17;;;;;;;;;;5876071;24;32337;-67
2021/10/30 01:22:09;;;;;;;2.17;1.40;;;;;;;;;;5876405;24;32614;-66
2021/10/30 01:24:35;;;;;;;2.35;1.63;;;;;;;;;;5876342;24;34164;-67
2021/10/30 01:27:02;;;;;;;2.25;2.05;;;;;;;;;;5875889;24;32405;-66
2021/10/30 01:29:30;;;;;;;2.22;1.42;;;;;;;;;;5875978;24;32454;-65
2021/10/30 01:31:56;;;;;;;;;;;;;;;;;;5876355;24;32387;-65
2021/10/30 01:34:27;;;;;;;2.42;1.25;;;;;;;;;;5876327;24;32275;-65
2021/10/30 01:36:54;;;;;;;1.98;1.77;;;;;;;;;;5876035;24;34575;-65
2021/10/30 01:39:24;;;;;;;2.35;2.15;;;;;;;;;;5876150;24;32363;-66
2021/10/30 01:41:53;;;;;;;1.85;1.58;;;;;;;;;;5875939;24;32160;-65
2021/10/30 01:44:20;;;;;;;3.53;2.38;;;;;;;;;;5875911;24;32337;-65
2021/10/30 01:46:47;;;;;;;2.35;1.80;;;;;;;;;;5872239;24;35682;-65
2021/10/30 01:49:13;;;;;;;1.52;1.35;;;;;;;;;;5875951;24;32183;-65
2021/10/30 01:51:40;;;;;;;2.42;2.22;;;;;;;;;;5871905;24;32626;-66
2021/10/30 01:54:07;;;;;;;2.45;2.25;;;;;;;;;;5875993;24;32266;-66
2021/10/30 01:56:35;;;;;;;2.92;2.58;;;;;;;;;;5876415;24;32377;-65
2021/10/30 01:59:01;;;;;;;4.25;2.28;;;;;;;;;;5875557;24;35866;-65
2021/10/30 02:01:28;;;;;;;2.00;1.42;;;;;;;;;;5875534;24;32288;-65
2021/10/30 02:03:54;;;;;;;2.40;2.20;;;;;;;;;;5875599;24;32280;-66
2021/10/30 02:06:21;;;;;;;2.25;1.70;;;;;;;;;;5875740;24;32290;-66
2021/10/30 02:08:48;;;;;;;3.28;2.58;;;;;;;;;;5875406;24;34847;-65
2021/10/30 02:11:15;;;;;;;1.67;1.55;;;;;;;;;;5875513;24;32666;-66
2021/10/30 02:13:43;;;;;;;1.90;1.52;;;;;;;;;;5875441;24;32346;-66
2021/10/30 02:16:12;;;;;;;2.28;1.92;;;;;;;;;;5875399;24;32290;-65
2021/10/30 02:18:39;;;;;;;2.28;1.35;;;;;;;;;;5875652;24;32413;-66
2021/10/30 02:21:05;;;;;;;2.22;1.95;;;;;;;;;;5875406;24;35686;-67
2021/10/30 02:23:32;;;;;;;1.85;1.50;;;;;;;;;;5874103;24;32505;-66
2021/10/30 02:25:59;;;;;;;3.28;2.53;;;;;;;;;;5873688;24;32451;-65
2021/10/30 02:28:26;;;;;;;2.40;1.75;;;;;;;;;;5876998;24;32397;-65
2021/10/30 02:30:54;;;;;;;2.70;1.45;;;;;;;;;;5877011;24;35726;-65
2021/10/30 02:33:21;;;;;;;2.72;2.47;;;;;;;;;;5877076;24;32337;-65
2021/10/30 02:35:47;;;;;;;3.03;2.75;;;;;;;;;;5877246;24;32324;-64
2021/10/30 02:38:14;;;;;;;1.95;1.45;;;;;;;;;;5877543;24;32945;-65
2021/10/30 02:40:41;;;;;;;2.03;1.65;;;;;;;;;;5877444;24;32451;-65
2021/10/30 02:43:07;;;;;;;2.08;1.88;;;;;;;;;;5877199;24;35634;-66
2021/10/30 02:45:34;;;;;;;2.55;2.13;;;;;;;;;;5877358;24;32394;-65
2021/10/30 02:48:02;;;;;;;2.97;2.58;;;;;;;;;;5877357;24;32447;-67
2021/10/30 02:50:29;;;;;;;2.33;1.90;;;;;;;;;;5877586;24;32499;-65
2021/10/30 02:52:56;;;;;;;2.22;1.60;;;;;;;;;;5873185;24;35611;-66
2021/10/30 02:55:23;;;;;;;2.30;1.95;;;;;;;;;;5877085;24;32435;-66
2021/10/30 02:57:51;;;;;;;3.28;2.35;;;;;;;;;;5877067;24;32337;-66
2021/10/30 03:00:18;;;;;;;2.88;2.35;;;;;;;;;;5876785;24;32378;-65
2021/10/30 03:02:45;;;;;;;2.35;1.75;;;;;;;;;;5877089;24;32463;-65
2021/10/30 03:05:13;;;;;;;2.25;2.03;;;;;;;;;;5877079;24;34230;-66
2021/10/30 03:07:40;;;;;;;2.30;1.95;;;;;;;;;;5876958;24;32472;-65
2021/10/30 03:10:08;;;;;;;2.00;1.45;;;;;;;;;;5877060;24;32330;-65
2021/10/30 03:12:35;;;;;;;3.33;2.72;;;;;;;;;;5877295;24;32169;-66
2021/10/30 03:15:02;;;;;;;2.45;1.58;;;;;;;;;;5877099;24;35318;-67
2021/10/30 03:17:29;;;;;;;3.15;1.90;;;;;;;;;;5876582;24;32683;-65
2021/10/30 03:19:56;;;;;;;3.13;2.83;;;;;;;;;;5877144;24;32590;-65
2021/10/30 03:22:24;;;;;;;4.00;2.55;;;;;;;;;;5877225;24;32314;-67
2021/10/30 03:24:50;;;;;;;3.15;2.63;;;;;;;;;;5877022;24;32278;-66
2021/10/30 03:27:17;;;;;;;2.15;1.77;;;;;;;;;;5876384;24;35345;-66
2021/10/30 03:29:44;;;;;;;3.08;2.78;;;;;;;;;;5876639;24;32519;-65
2021/10/30 03:32:10;;;;;;;3.35;2.63;;;;;;;;;;5876911;24;32319;-66
2021/10/30 03:34:37;;;;;;;3.00;1.77;;;;;;;;;;5876794;24;32152;-66
2021/10/30 03:37:05;;;;;;;3.03;2.50;;;;;;;;;;5876667;24;34055;-65
2021/10/30 03:39:33;;;;;;;2.33;1.98;;;;;;;;;;5876818;24;32356;-65
2021/10/30 03:41:59;;;;;;;3.05;2.17;;;;;;;;;;5876677;24;32340;-66
2021/10/30 03:44:26;;;;;;;2.10;1.90;;;;;;;;;;5876272;24;32334;-65
2021/10/30 03:46:53;;;;;;;2.25;2.05;;;;;;;;;;5876789;24;32311;-64
2021/10/30 03:49:19;;;;;;;3.00;2.70;;;;;;;;;;5875655;24;35109;-64
2021/10/30 03:51:46;;;;;;;2.70;2.08;;;;;;;;;;5874565;24;32527;-66
2021/10/30 03:54:13;;;;;;;2.55;1.75;;;;;;;;;;5871514;24;32462;-64
2021/10/30 03:56:41;;;;;;;1.88;1.70;;;;;;;;;;5871753;24;32341;-66
2021/10/30 03:59:08;;;;;;;2.75;2.08;;;;;;;;;;5875329;24;34267;-65
2021/10/30 04:01:34;;;;;;;2.35;1.85;;;;;;;;;;5875862;24;32290;-65
2021/10/30 04:04:02;;;;;;;3.05;2.40;;;;;;;;;;5874804;24;32676;-66
2021/10/30 04:06:28;;;;;;;4.70;1.77;;;;;;;;;;5875296;24;32477;-65
2021/10/30 04:08:56;;;;;;;1.98;1.45;;;;;;;;;;5875230;24;32408;-65
2021/10/30 04:11:23;;;;;;;3.35;2.38;;;;;;;;;;5850642;24;34280;-66
2021/10/30 04:13:51;;;;;;;2.33;1.90;;;;;;;;;;5874532;24;32405;-65
2021/10/30 04:16:18;;;;;;;3.00;2.50;;;;;;;;;;5875527;24;32461;-64
2021/10/30 04:18:44;;;;;;;2.80;1.83;;;;;;;;;;5875282;24;32384;-67
2021/10/30 04:21:12;;;;;;;2.50;2.17;;;;;;;;;;5875116;24;34736;-66
2021/10/30 04:23:39;;;;;;;3.33;3.03;;;;;;;;;;5875158;24;32535;-65
2021/10/30 04:26:06;;;;;;;2.35;2.05;;;;;;;;;;5875030;24;32534;-65
2021/10/30 04:28:33;;;;;;;3.33;2.97;;;;;;;;;;5875629;24;32852;-65
2021/10/30 04:31:06;;;;;;;3.30;2.30;;;;;;;;;;5875401;24;32204;-65
2021/10/30 04:33:33;;;;;;;2.95;2.72;;;;;;;;;;5875202;24;35816;-66
2021/10/30 04:36:03;;;;;;;3.75;2.70;;;;;;;;;;5874385;24;32287;-65
2021/10/30 04:38:30;;;;;;;3.30;1.95;;;;;;;;;;5874603;24;32400;-66
2021/10/30 04:40:56;;;;;;;2.47;2.17;;;;;;;;;;5874533;24;32554;-67
2021/10/30 04:43:23;;;;;;;2.65;2.10;;;;;;;;;;5874588;24;34159;-66
2021/10/30 04:45:50;;;;;;;3.95;2.95;;;;;;;;;;5874639;24;32312;-66
2021/10/30 04:48:18;;;;;;;2.72;2.05;;;;;;;;;;5874063;24;32663;-66
2021/10/30 04:50:45;;;;;;;3.05;2.15;;;;;;;;;;5874502;24;32278;-66
2021/10/30 04:53:12;;;;;;;4.50;2.25;;;;;;;;;;5874719;24;32160;-66
2021/10/30 04:55:39;;;;;;;3.05;2.47;;;;;;;;;;5874816;24;34244;-66
2021/10/30 04:58:06;;;;;;;2.63;2.05;;;;;;;;;;5874481;24;32361;-67
2021/10/30 05:00:33;;;;;;;3.67;3.15;;;;;;;;;;5867856;24;32711;-66
2021/10/30 05:02:59;;;;;;;3.67;2.15;;;;;;;;;;5874923;24;32395;-66
2021/10/30 05:05:28;;;;;;;3.58;2.05;;;;;;;;;;5874364;24;35471;-67
2021/10/30 05:07:54;;;;;;;3.20;2.53;;;;;;;;;;5873464;24;32315;-67
2021/10/30 05:10:21;;;;;;;4.35;1.88;;;;;;;;;;5873540;24;32423;-66
2021/10/30 05:12:48;;;;;;;3.20;2.72;;;;;;;;;;5873628;24;32739;-66
2021/10/30 05:15:15;;;;;;;3.05;2.15;;;;;;;;;;5872635;24;32360;-66
2021/10/30 05:17:41;;;;;;;2.35;2.15;;;;;;;;;;5874335;24;34388;-65
2021/10/30 05:20:10;;;;;;;3.28;2.67;;;;;;;;;;5868959;24;32455;-67
2021/10/30 05:22:38;;;;;;;2.72;2.03;;;;;;;;;;5869975;24;32356;-66
2021/10/30 05:25:06;;;;;;;3.00;2.22;;;;;;;;;;5870551;24;32412;-66
2021/10/30 05:27:32;;;;;;;4.13;2.05;;;;;;;;;;5870499;24;34708;-66
2021/10/30 05:29:59;;;;;;;3.20;2.40;;;;;;;;;;5869573;24;32737;-67
2021/10/30 05:32:26;;;;;;;3.15;2.10;;;;;;;;;;5869943;24;32463;-65
2021/10/30 05:34:52;;;;;;;4.47;2.15;;;;;;;;;;5870447;24;32837;-67
2021/10/30 05:37:19;;;;;;;3.97;2.47;;;;;;;;;;5870297;24;32499;-70
2021/10/30 05:39:47;;;;;;;3.72;2.75;;;;;;;;;;5869917;24;34493;-67
2021/10/30 05:42:16;;;;;;;2.92;2.35;;;;;;;;;;5870194;24;32549;-65
2021/10/30 05:44:43;;;;;;;3.13;2.30;;;;;;;;;;5869735;24;32763;-67
2021/10/30 05:47:10;;;;;;;3.78;2.28;;;;;;;;;;5870184;24;32408;-66
2021/10/30 05:49:39;;;;;;;3.45;2.67;;;;;;;;;;5869669;24;34752;-67
2021/10/30 05:52:07;;;;;;;4.78;3.30;;;;;;;;;;5870306;24;33065;-71
2021/10/30 05:54:36;;;;;;;5.78;2.90;;;;;;;;;;5870493;24;32826;-65
2021/10/30 05:57:05;;;;;;;3.50;3.05;;;;;;;;;;5869900;24;32614;-65
2021/10/30 05:59:32;;;;;;;4.40;2.67;;;;;;;;;;5870052;24;32985;-65
2021/10/30 06:01:58;;;;;;;3.35;2.97;;;;;;;;;;5866052;24;34727;-64
2021/10/30 06:04:25;;;;;;;4.60;2.30;;;;;;;;;;5869903;24;32474;-65
2021/10/30 06:06:52;;;;;;;4.32;2.45;;;;;;;;;;5869407;24;32778;-65
2021/10/30 06:09:19;;;;;;;3.00;1.88;;;;;;;;;;5865991;24;32406;-65
2021/10/30 06:11:46;;;;;;;5.88;2.85;;;;;;;;;;5869043;24;34950;-66
2021/10/30 06:14:14;;;;;;;5.38;2.70;;;;;;;;;;5869965;24;32321;-66
2021/10/30 06:16:40;;;;;;;4.03;2.65;;;;;;;;;;5869494;24;32535;-67
2021/10/30 06:19:07;;;;;;;4.45;3.15;;;;;;;;;;5869572;24;32349;-67
2021/10/30 06:21:34;;;;;;;5.43;3.38;;;;;;;;;;5870793;24;32800;-66
2021/10/30 06:24:00;;;;;;;4.30;2.72;;;;;;;;;;5869850;24;34996;-67
2021/10/30 06:26:28;;;;;;;5.20;2.95;;;;;;;;;;5869851;24;32364;-66
2021/10/30 06:28:55;;;;;;;3.72;2.55;;;;;;;;;;5869526;24;32797;-66
2021/10/30 06:31:24;;;;;;;4.88;3.03;;;;;;;;;;5869873;24;32663;-66
2021/10/30 06:33:51;;;;;;;3.60;2.85;;;;;;;;;;5869288;24;33877;-65
2021/10/30 06:36:17;;;;;;;5.13;3.67;;;;;;;;;;5869757;24;32341;-65
2021/10/30 06:38:44;;;;;;;4.63;2.90;;;;;;;;;;5869642;24;32654;-69
2021/10/30 06:41:12;;;;;;;3.53;2.67;;;;;;;;;;5869737;24;32772;-68
2021/10/30 06:43:40;;;;;;;3.88;2.75;;;;;;;;;;5869953;24;32835;-64
2021/10/30 06:46:06;;;;;;;3.75;2.75;;;;;;;;;;5868702;24;34499;-64
2021/10/30 06:48:35;;;;;;;4.28;2.80;;;;;;;;;;5869219;24;33028;-69
2021/10/30 06:51:04;;;;;;;6.45;3.22;;;;;;;;;;5870013;24;32429;-66
2021/10/30 06:53:31;;;;;;;4.60;2.67;;;;;;;;;;5871223;24;32455;-64
2021/10/30 06:55:58;;;;;;;5.15;2.70;;;;;;;;;;5870674;24;34688;-66
2021/10/30 06:58:27;;;;;;;3.20;2.58;;;;;;;;;;5869273;24;32460;-66
2021/10/30 07:00:54;;;;;;;6.00;2.88;;;;;;;;;;5870032;24;32424;-66
2021/10/30 07:03:21;;;;;;;5.25;3.20;;;;;;;;;;5871106;24;32283;-68
2021/10/30 07:05:49;;;;;;;3.83;3.17;;;;;;;;;;5871353;24;32553;-65
2021/10/30 07:08:16;;;;;;;4.47;3.30;;;;;;;;;;5869762;24;34642;-67
2021/10/30 07:10:43;;;;;;;4.95;3.15;;;;;;;;;;5865940;24;32371;-67
2021/10/30 07:13:11;;;;;;;6.90;3.70;;;;;;;;;;5872393;24;32827;-68
2021/10/30 07:15:38;;;;;;;4.65;3.13;;;;;;;;;;5872539;24;32459;-68
2021/10/30 07:18:05;;;;;;;4.20;3.13;;;;;;;;;;5873344;24;33966;-67
2021/10/30 07:20:31;;;;;;;5.03;3.15;;;;;;;;;;5872808;24;32359;-67
2021/10/30 07:22:59;;;;;;;5.18;3.50;;;;;;;;;;5872758;24;32420;-68
2021/10/30 07:25:26;;;;;;;7.80;3.05;;;;;;;;;;5872854;24;32310;-65
2021/10/30 07:27:53;;;;;;;5.75;4.25;;;;;;;;;;5872479;24;32459;-66
2021/10/30 07:30:20;;;;;;;5.70;3.10;;;;;;;;;;5871281;24;34812;-65
2021/10/30 07:32:53;;;;;;;6.25;3.33;;;;;;;;;;5869609;24;32458;-65
2021/10/30 07:35:21;;;;;;;5.88;3.30;;;;;;;;;;5871098;24;32774;-67
2021/10/30 07:37:47;;;;;;;;;;;;;;;;;;5872073;24;32998;-67
2021/10/30 07:40:16;;;;;;;5.25;3.30;;;;;;;;;;5872005;24;34367;-67
2021/10/30 07:42:43;;;;;;;4.53;3.00;;;;;;;;;;5872247;24;32594;-66
2021/10/30 07:45:10;;;;;;;3.97;2.65;;;;;;;;;;5872369;24;32333;-68
2021/10/30 07:47:37;;;;;;;4.82;3.00;;;;;;;;;;5871128;24;32549;-67
2021/10/30 07:50:05;;;;;;;4.13;2.90;;;;;;;;;;5872537;24;32398;-65
2021/10/30 07:52:32;;;;;;;4.07;2.67;;;;;;;;;;5871999;24;35320;-65
2021/10/30 07:54:59;;;;;;;4.18;2.67;;;;;;;;;;5871776;24;32504;-64
2021/10/30 07:57:27;;;;;;;4.20;2.95;;;;;;;;;;5871736;24;32278;-64
2021/10/30 07:59:54;;;;;;;5.00;3.05;;;;;;;;;;5872001;24;32806;-65
2021/10/30 08:02:21;;;;;;;5.47;2.92;;;;;;;;;;5871447;24;35126;-65
2021/10/30 08:04:47;;;;;;;6.00;2.70;;;;;;;;;;5871630;24;32356;-65
2021/10/30 08:07:14;;;;;;;4.07;3.08;;;;;;;;;;5871132;24;32845;-66
2021/10/30 08:09:41;;;;;;;6.22;3.13;;;;;;;;;;5871556;24;32802;-65
2021/10/30 08:12:09;;;;;;;5.68;3.15;;;;;;;;;;5867833;24;32505;-67
2021/10/30 08:14:38;;;;;;;3.88;3.03;;;;;;;;;;5860509;24;34644;-67
2021/10/30 08:17:05;;;;;;;5.28;2.90;;;;;;;;;;5871660;24;32739;-65
2021/10/30 08:19:32;;;;;;;5.43;2.92;;;;;;;;;;5871944;24;32446;-64
2021/10/30 08:21:59;;;;;;;4.22;3.10;;;;;;;;;;5871258;24;32489;-65
2021/10/30 08:24:25;;;;;;;3.63;2.95;;;;;;;;;;5871412;24;34147;-66
2021/10/30 08:26:52;;;;;;;4.60;2.70;;;;;;;;;;5870916;24;32733;-66
2021/10/30 08:29:19;;;;;;;4.90;3.15;;;;;;;;;;5871910;24;32380;-66
2021/10/30 08:31:47;;;;;;;5.18;3.03;;;;;;;;;;5870777;24;32840;-65
2021/10/30 08:34:14;;;;;;;4.53;2.95;;;;;;;;;;5871929;24;32396;-66
2021/10/30 08:36:41;;;;;;;4.25;2.40;;;;;;;;;;5871784;24;35575;-66
2021/10/30 08:39:07;;;;;;;;;;;;;;;;;;5872265;24;32375;-66
2021/10/30 08:41:34;;;;;;;3.67;2.53;;;;;;;;;;5847808;24;32378;-65
2021/10/30 08:44:02;;;;;;;3.58;2.47;;;;;;;;;;5871812;24;32418;-66
2021/10/30 08:46:29;;;;;;;5.40;3.30;;;;;;;;;;5871052;24;35087;-67
2021/10/30 08:49:01;;;;;;;4.78;2.95;;;;;;;;;;5870722;24;32460;-67
2021/10/30 08:51:28;;;;;;;5.28;2.67;;;;;;;;;;5871877;24;32342;-67
2021/10/30 08:53:55;;;;;;;3.67;2.97;;;;;;;;;;5871465;24;32336;-67
2021/10/30 08:56:23;;;;;;;4.38;2.80;;;;;;;;;;5871600;24;32642;-67
2021/10/30 08:58:50;;;;;;;5.18;3.05;;;;;;;;;;5871232;24;35426;-67
2021/10/30 09:01:17;;;;;;;4.90;3.00;;;;;;;;;;5871481;24;32716;-68
2021/10/30 09:03:58;;;;;;;3.00;2.53;;;;;;;;;;5871667;24;32570;-67
2021/10/30 09:06:35;;;;;;;6.60;2.63;;;;;;;;;;5871311;24;32518;-67
2021/10/30 09:09:15;;;;;;;3.70;2.78;;;;;;;;;;5871535;24;34138;-66
2021/10/30 09:11:53;;;;;;;7.13;2.85;;;;;;;;;;5871074;24;32432;-66
2021/10/30 09:14:24;;;;;;;6.15;2.95;;;;;;;;;;5870732;24;32604;-66
2021/10/30 09:17:12;;;;;;;4.13;3.20;;;;;;;;;;5868617;24;32492;-67
2021/10/30 09:19:42;;;;;;;4.22;2.53;;;;;;;;;;5872481;24;32408;-66
2021/10/30 09:22:08;;;;;;;6.40;3.22;;;;;;;;;;5874299;24;32499;-66
2021/10/30 09:24:58;;;;;;;5.63;2.60;;;;;;;;;;5874638;24;32379;-64
2021/10/30 09:27:45;;;;;;;3.28;2.67;;;;;;;;;;5873400;24;32528;-64
2021/10/30 09:30:13;;;;;;;4.57;3.05;;;;;;;;;;5874076;24;32677;-67
2021/10/30 09:32:41;;;;;;;8.68;3.13;;;;;;;;;;5873383;24;34592;-65
2021/10/30 09:35:12;;;;;;;7.25;2.33;;;;;;;;;;5873110;24;32326;-65
2021/10/30 09:37:39;;;;;;;3.20;2.63;;;;;;;;;;5873442;24;32417;-65
2021/10/30 09:40:21;;;;;;;3.45;2.80;;;;;;;;;;5848709;24;32439;-66
2021/10/30 09:42:51;;;;;;;3.38;2.53;;;;;;;;;;5872340;24;32300;-66
2021/10/30 09:45:20;;;;;;;4.43;2.83;;;;;;;;;;5873188;24;32284;-65
2021/10/30 09:48:02;;;;;;;3.90;2.67;;;;;;;;;;5873379;24;32358;-66
2021/10/30 09:50:33;;;;;;;4.10;2.67;;;;;;;;;;5873509;24;32327;-64
2021/10/30 09:53:02;;;;;;;4.60;2.55;;;;;;;;;;5874669;24;32629;-64
2021/10/30 09:55:29;;;;;;;3.97;2.95;;;;;;;;;;5873828;24;34762;-66
2021/10/30 09:58:05;;;;;;;2.78;2.35;;;;;;;;;;5874076;24;32427;-66
2021/10/30 10:00:36;;;;;;;3.85;2.17;;;;;;;;;;5874771;24;32655;-67
2021/10/30 10:03:03;;;;;;;6.07;2.72;;;;;;;;;;5874532;24;32642;-66
2021/10/30 10:05:36;;;;;;;;;;;;;;;;;;5874613;24;32288;-66
2021/10/30 10:08:05;;;;;;;4.03;2.45;;;;;;;;;;5873248;24;32347;-65
2021/10/30 10:10:33;;;;;;;3.10;2.25;;;;;;;;;;5872098;24;32697;-65
2021/10/30 10:12:59;;;;;;;4.35;3.35;;;;;;;;;;5873368;24;32287;-65
2021/10/30 10:15:26;;;;;;;4.20;2.85;;;;;;;;;;5872579;24;32580;-65
2021/10/30 10:17:53;;;;;;;3.15;2.40;;;;;;;;;;5872656;24;34003;-67
2021/10/30 10:20:21;;;;;;;4.60;2.45;;;;;;;;;;5871216;24;33235;-65
2021/10/30 10:22:50;;;;;;;3.55;2.28;;;;;;;;;;5872971;24;32369;-65
2021/10/30 10:25:35;;;;;;;3.92;2.55;;;;;;;;;;5870195;24;32432;-65
2021/10/30 10:28:37;;;;;;;3.67;2.95;;;;;;;;;;5872398;24;32589;-64
2021/10/30 10:31:10;;;;;;;6.13;2.72;;;;;;;;;;5874738;24;32516;-67
2021/10/30 10:33:38;;;;;;;5.40;2.72;;;;;;;;;;5872611;24;32703;-65
2021/10/30 10:36:25;;;;;;;8.68;2.67;;;;;;;;;;5874140;24;32294;-66
2021/10/30 10:39:30;;;;;;;8.77;3.08;;;;;;;;;;5874384;24;32718;-67
2021/10/30 10:41:59;;;;;;;4.75;2.95;;;;;;;;;;5874934;24;35074;-67
2021/10/30 10:44:59;;;;;;;3.60;2.55;;;;;;;;;;5874821;24;32374;-67
2021/10/30 10:48:05;;;;;;;6.95;3.35;;;;;;;;;;5876981;24;32211;-67
2021/10/30 10:50:43;;;;;;;6.47;3.08;;;;;;;;;;5876930;24;32364;-66
2021/10/30 10:53:18;;;;;;;4.25;2.83;;;;;;;;;;5876766;24;32402;-68
2021/10/30 10:56:15;;;;;;;6.65;3.00;;;;;;;;;;5876595;24;32640;-67
2021/10/30 10:59:05;;;;;;;7.57;2.88;;;;;;;;;;5876476;24;32396;-68
2021/10/30 11:01:34;;;;;;;6.00;3.30;;;;;;;;;;5876710;24;32287;-68
2021/10/30 11:04:12;;;;;;;6.07;3.17;;;;;;;;;;5876663;24;32286;-68
2021/10/30 11:06:42;;;;;;;5.32;2.95;;;;;;;;;;5876547;24;34140;-68
2021/10/30 11:09:15;;;;;;;4.95;3.22;;;;;;;;;;5852400;24;32470;-68
2021/10/30 11:11:44;;;;;;;7.70;2.95;;;;;;;;;;5876273;24;33032;-68
2021/10/30 11:14:13;;;;;;;3.55;2.95;;;;;;;;;;5876843;24;32370;-69
2021/10/30 11:16:43;;;;;;;6.32;3.05;;;;;;;;;;5876873;24;32707;-67
2021/10/30 11:19:34;;;;;;;4.20;2.72;;;;;;;;;;5876686;24;32319;-67
2021/10/30 11:22:12;;;;;;;3.75;2.80;;;;;;;;;;5876476;24;32712;-67
2021/10/30 11:24:52;;;;;;;6.72;3.60;;;;;;;;;;5876060;24;32462;-67
2021/10/30 11:27:21;;;;;;;6.38;2.75;;;;;;;;;;5871711;24;32452;-65
2021/10/30 11:29:50;;;;;;;4.95;3.08;;;;;;;;;;5876464;24;34191;-68
2021/10/30 11:32:17;;;;;;;7.60;2.50;;;;;;;;;;5874533;24;32394;-68
2021/10/30 11:34:53;;;;;;;8.95;2.70;;;;;;;;;;5869894;24;32769;-67
2021/10/30 11:37:20;;;;;;;7.47;2.33;;;;;;;;;;5875261;24;32341;-66
2021/10/30 11:39:47;;;;;;;5.85;2.72;;;;;;;;;;5876698;24;33835;-66
2021/10/30 11:42:14;;;;;;;3.58;2.55;;;;;;;;;;5876562;24;32445;-65
2021/10/30 11:44:54;;;;;;;6.15;2.72;;;;;;;;;;5874831;24;32331;-65
2021/10/30 11:47:28;;;;;;;4.03;2.33;;;;;;;;;;5876681;24;32579;-67
2021/10/30 11:49:56;;;;;;;3.33;2.58;;;;;;;;;;5876924;24;32610;-66
2021/10/30 11:52:25;;;;;;;4.28;2.30;;;;;;;;;;5876469;24;33902;-66
2021/10/30 11:54:58;;;;;;;3.30;2.55;;;;;;;;;;5876104;24;32394;-64
2021/10/30 11:57:24;;;;;;;4.32;3.50;;;;;;;;;;5875687;24;32411;-70
2021/10/30 12:00:05;;;;;;;4.20;2.75;;;;;;;;;;5875299;24;32533;-67
2021/10/30 12:02:31;;;;;;;8.43;2.83;;;;;;;;;;5876471;24;36010;-69
2021/10/30 12:05:09;;;;;;;3.53;2.55;;;;;;;;;;5876492;24;32290;-68
2021/10/30 12:07:37;;;;;;;3.47;2.58;;;;;;;;;;5876963;24;32376;-68
2021/10/30 12:10:05;;;;;;;3.08;2.78;;;;;;;;;;5877117;24;32295;-68
2021/10/30 12:12:32;;;;;;;3.58;2.70;;;;;;;;;;5876898;24;32198;-67
2021/10/30 12:15:00;;;;;;;4.55;2.45;;;;;;;;;;5876362;24;33959;-68
2021/10/30 12:17:29;;;;;;;5.28;2.65;;;;;;;;;;5876679;24;32310;-64
2021/10/30 12:20:00;;;;;;;2.92;1.83;;;;;;;;;;5876463;24;32473;-67
2021/10/30 12:22:30;;;;;;;2.90;2.30;;;;;;;;;;5876648;24;32374;-67
2021/10/30 12:25:05;;;;;;;2.95;2.35;;;;;;;;;;5876120;24;34079;-68
2021/10/30 12:27:33;;;;;;;4.07;2.83;;;;;;;;;;5876128;24;32394;-67
2021/10/30 12:30:09;;;;;;;4.03;2.47;;;;;;;;;;5876603;24;32384;-69
2021/10/30 12:32:41;;;;;;;3.45;2.38;;;;;;;;;;5876591;24;32330;-69
2021/10/30 12:35:14;;;;;;;4.57;2.80;;;;;;;;;;5876510;24;32409;-67
2021/10/30 12:37:43;;;;;;;4.60;2.33;;;;;;;;;;5872981;24;34403;-67
2021/10/30 12:40:10;;;;;;;4.10;2.67;;;;;;;;;;5851904;24;32378;-66
2021/10/30 12:42:37;;;;;;;5.22;2.72;;;;;;;;;;5873222;24;32210;-68
2021/10/30 12:45:04;;;;;;;;;;;;;;;;;;5877250;24;32353;-68
2021/10/30 12:47:32;;;;;;;4.85;2.63;;;;;;;;;;5876040;24;35498;-68
2021/10/30 12:50:01;;;;;;;5.70;3.00;;;;;;;;;;5875964;24;32404;-68
2021/10/30 12:52:40;;;;;;;5.50;3.60;;;;;;;;;;5876198;24;32312;-66
2021/10/30 12:55:12;;;;;;;6.75;3.28;;;;;;;;;;5876659;24;32595;-66
2021/10/30 12:57:39;;;;;;;7.95;3.22;;;;;;;;;;5876809;24;32643;-67
2021/10/30 13:00:10;;;;;;;6.80;3.60;;;;;;;;;;5852126;24;34108;-66
2021/10/30 13:02:39;;;;;;;7.13;3.30;;;;;;;;;;5876469;24;32639;-67
2021/10/30 13:05:17;;;;;;;6.00;2.92;;;;;;;;;;5876250;24;32257;-67
2021/10/30 13:07:45;;;;;;;6.82;3.47;;;;;;;;;;5876233;24;31881;-67
2021/10/30 13:10:16;;;;;;;8.65;3.72;;;;;;;;;;5874570;24;35508;-67
2021/10/30 13:12:43;;;;;;;7.13;3.55;;;;;;;;;;5875590;24;32506;-66
2021/10/30 13:15:10;;;;;;;;;;;;;;;;;;5876250;24;32381;-66
2021/10/30 13:17:38;;;;;;;;;;;;;;;;;;5875869;24;32378;-67
2021/10/30 13:20:06;;;;;;;16.08;5.88;;;;;;;;;;5875668;24;32393;-67
2021/10/30 13:22:32;;;;;;;17.05;8.07;;;;;;;;;;5875427;24;35551;-68
2021/10/30 13:24:59;;;;;;;22.00;10.43;;;;;;;;;;5875194;24;32572;-68
2021/10/30 13:27:26;;;;;;;30.05;12.93;;;;;;;;;;5875081;24;32491;-64
2021/10/30 13:29:53;;;;;;;33.55;14.25;;;;;;;;;;5875680;24;32355;-66
2021/10/30 13:32:19;;;;;;;35.30;14.90;;;;;;;;;;5875217;24;34076;-65
2021/10/30 13:34:48;;;;;;;43.38;17.58;;;;;;;;;;5875262;24;32467;-64
2021/10/30 13:37:14;;;;;;;37.83;20.58;;;;;;;;;;5875495;24;32353;-64
2021/10/30 13:39:42;;;;;;;54.88;25.35;;;;;;;;;;5875340;24;32352;-65
2021/10/30 13:42:09;;;;;;;51.78;25.65;;;;;;;;;;5875584;24;32353;-66
2021/10/30 13:44:36;;;;;;;56.80;25.98;;;;;;;;;;5875545;24;33986;-67
2021/10/30 13:47:03;;;;;;;47.30;25.63;;;;;;;;;;5871834;24;32639;-67
2021/10/30 13:49:30;;;;;;;54.65;23.75;;;;;;;;;;5875230;24;32398;-66
2021/10/30 13:51:59;;;;;;;42.28;21.48;;;;;;;;;;5870898;24;33243;-68
2021/10/30 13:54:26;;;;;;;46.88;23.17;;;;;;;;;;5874545;24;34813;-66
2021/10/30 13:56:54;;;;;;;38.08;18.88;;;;;;;;;;5875186;24;32325;-66
2021/10/30 13:59:21;;;;;;;41.03;17.98;;;;;;;;;;5875311;24;32369;-66
2021/10/30 14:01:48;;;;;;;37.42;17.50;;;;;;;;;;5874843;24;32368;-66
2021/10/30 14:04:15;;;;;;;38.30;17.35;;;;;;;;;;5875173;24;32761;-66
2021/10/30 14:06:42;;;;;;;33.38;15.75;;;;;;;;;;5874668;24;35136;-66
2021/10/30 14:09:10;;;;;;;28.27;14.15;;;;;;;;;;5875117;24;32342;-67
2021/10/30 14:11:37;;;;;;;28.55;13.48;;;;;;;;;;5875285;24;32357;-66
2021/10/30 14:14:04;;;;;;;30.63;13.30;;;;;;;;;;5875248;24;32342;-65
2021/10/30 14:16:31;;;;;;;23.38;11.63;;;;;;;;;;5875113;24;35962;-67
2021/10/30 14:18:59;;;;;;;28.80;12.10;;;;;;;;;;5875372;24;32378;-66
2021/10/30 14:21:26;;;;;;;26.52;11.50;;;;;;;;;;5874994;24;32475;-66
2021/10/30 14:23:54;;;;;;;27.10;11.45;;;;;;;;;;5875032;24;32366;-67
2021/10/30 14:26:22;;;;;;;27.33;10.80;;;;;;;;;;5875121;24;32758;-66
2021/10/30 14:28:48;;;;;;;30.80;12.65;;;;;;;;;;5874876;24;35154;-65
2021/10/30 14:31:15;;;;;;;36.00;12.98;;;;;;;;;;5873524;24;32319;-66
2021/10/30 14:33:42;;;;;;;38.17;12.35;;;;;;;;;;5874720;24;32799;-66
2021/10/30 14:36:09;;;;;;;33.45;11.27;;;;;;;;;;5875344;24;32414;-66
2021/10/30 14:38:35;;;;;;;27.55;10.30;;;;;;;;;;5875227;24;35948;-65
2021/10/30 14:41:03;;;;;;;30.60;10.02;;;;;;;;;;5875035;24;32523;-66
2021/10/30 14:43:30;;;;;;;;;;;;;;;;;;5875767;24;32435;-65
2021/10/30 14:46:00;;;;;;;26.80;9.25;;;;;;;;;;5874827;24;32336;-66
2021/10/30 14:48:27;;;;;;;25.85;9.23;;;;;;;;;;5875299;24;32404;-66
2021/10/30 14:50:54;;;;;;;22.25;8.45;;;;;;;;;;5850614;24;35129;-68
2021/10/30 14:53:21;;;;;;;18.35;8.40;;;;;;;;;;5847128;24;32563;-67